createdAt,value
2019-04-30T00:00:19.355Z,7.86
2019-04-30T00:01:19.376Z,7.92
2019-04-30T00:02:19.341Z,7.89
2019-04-30T00:03:19.756Z,7.83
2019-04-30T00:04:19.310Z,7.77
2019-04-30T00:05:19.305Z,7.79
2019-04-30T00:06:19.289Z,7.86
2019-04-30T00:07:19.376Z,7.82
2019-04-30T00:08:19.270Z,7.79
2019-04-30T00:09:19.338Z,7.69
2019-04-30T00:10:19.246Z,7.72
2019-04-30T00:11:19.613Z,7.67
2019-04-30T00:12:19.246Z,7.68
2019-04-30T00:13:20.990Z,7.68
2019-04-30T00:14:19.204Z,7.61
2019-04-30T00:15:19.684Z,7.60
2019-04-30T00:16:19.184Z,7.58
2019-04-30T00:17:19.739Z,7.61
2019-04-30T00:18:19.188Z,7.69
2019-04-30T00:19:19.856Z,7.55
2019-04-30T00:20:19.148Z,7.63
2019-04-30T00:21:19.129Z,7.61
2019-04-30T00:22:30.988Z,7.61
2019-04-30T00:23:22.616Z,7.64
2019-04-30T00:24:20.085Z,7.64
2019-04-30T00:25:19.632Z,7.64
2019-04-30T00:26:19.065Z,7.61
2019-04-30T00:27:21.061Z,7.63
2019-04-30T00:28:20.072Z,7.63
2019-04-30T00:29:26.468Z,7.64
2019-04-30T00:30:20.026Z,7.61
2019-04-30T00:31:23.781Z,7.53
2019-04-30T00:32:20.003Z,7.55
2019-04-30T00:33:22.147Z,7.50
2019-04-30T00:34:18.984Z,7.50
2019-04-30T00:35:19.752Z,7.64
2019-04-30T00:36:18.953Z,7.61
2019-04-30T00:37:19.092Z,7.63
2019-04-30T00:38:19.287Z,7.67
2019-04-30T00:39:18.936Z,7.61
2019-04-30T00:40:21.723Z,7.64
2019-04-30T00:41:19.895Z,7.63
2019-04-30T00:42:24.293Z,7.61
2019-04-30T00:43:19.918Z,7.60
2019-04-30T00:44:19.822Z,7.57
2019-04-30T00:45:19.854Z,7.52
2019-04-30T00:46:25.629Z,7.46
2019-04-30T00:47:19.828Z,7.57
2019-04-30T00:48:26.856Z,7.60
2019-04-30T00:49:23.414Z,7.49
2019-04-30T00:50:19.805Z,7.50
2019-04-30T00:51:21.298Z,7.48
2019-04-30T00:52:18.792Z,7.49
2019-04-30T00:53:18.769Z,7.46
2019-04-30T00:54:22.339Z,7.57
2019-04-30T00:55:19.749Z,7.39
2019-04-30T00:56:19.831Z,7.39
2019-04-30T00:57:18.743Z,7.43
2019-04-30T00:58:24.847Z,7.45
2019-04-30T00:59:19.723Z,7.46
2019-04-30T01:00:25.104Z,7.45
2019-04-30T01:01:19.679Z,7.42
2019-04-30T01:02:27.922Z,7.35
2019-04-30T01:03:19.649Z,7.35
2019-04-30T01:04:19.389Z,7.34
2019-04-30T01:05:18.715Z,7.35
2019-04-30T01:06:26.872Z,7.35
2019-04-30T01:07:19.621Z,7.32
2019-04-30T01:08:21.165Z,7.32
2019-04-30T01:09:19.598Z,7.27
2019-04-30T01:10:19.676Z,7.39
2019-04-30T01:11:19.567Z,7.32
2019-04-30T01:12:27.723Z,7.32
2019-04-30T01:13:19.549Z,7.27
2019-04-30T01:14:18.944Z,7.23
2019-04-30T01:15:19.067Z,7.21
2019-04-30T01:16:19.530Z,7.10
2019-04-30T01:17:18.859Z,7.20
2019-04-30T01:18:19.389Z,7.20
2019-04-30T01:19:29.597Z,7.25
2019-04-30T01:20:19.571Z,7.23
2019-04-30T01:21:18.584Z,7.21
2019-04-30T01:22:21.574Z,7.24
2019-04-30T01:23:19.588Z,7.12
2019-04-30T01:24:19.050Z,7.25
2019-04-30T01:25:18.745Z,7.09
2019-04-30T01:26:18.736Z,7.13
2019-04-30T01:27:18.834Z,7.07
2019-04-30T01:28:22.732Z,7.07
2019-04-30T01:29:19.390Z,7.10
2019-04-30T01:30:22.563Z,7.12
2019-04-30T01:31:18.732Z,7.17
2019-04-30T01:32:20.934Z,7.13
2019-04-30T01:33:19.170Z,7.09
2019-04-30T01:34:19.610Z,7.05
2019-04-30T01:35:19.137Z,7.15
2019-04-30T01:36:19.284Z,7.15
2019-04-30T01:37:20.340Z,7.06
2019-04-30T01:38:19.267Z,7.12
2019-04-30T01:39:19.533Z,7.06
2019-04-30T01:40:18.957Z,7.05
2019-04-30T01:41:20.298Z,7.13
2019-04-30T01:42:19.216Z,7.05
2019-04-30T01:43:23.208Z,7.03
2019-04-30T01:44:19.521Z,6.94
2019-04-30T01:45:18.763Z,7.02
2019-04-30T01:46:19.234Z,7.06
2019-04-30T01:47:21.524Z,7.03
2019-04-30T01:48:19.426Z,6.98
2019-04-30T01:49:20.077Z,7.07
2019-04-30T01:50:19.403Z,7.05
2019-04-30T01:51:21.689Z,7.05
2019-04-30T01:52:19.398Z,7.03
2019-04-30T01:53:18.589Z,7.03
2019-04-30T01:54:24.039Z,6.92
2019-04-30T01:55:19.720Z,6.87
2019-04-30T01:56:19.178Z,6.94
2019-04-30T01:57:19.293Z,6.95
2019-04-30T01:58:19.301Z,6.87
2019-04-30T01:59:19.047Z,6.94
2019-04-30T02:00:19.538Z,6.94
2019-04-30T02:01:19.023Z,6.94
2019-04-30T02:02:18.556Z,6.92
2019-04-30T02:03:19.322Z,6.94
2019-04-30T02:04:19.585Z,6.89
2019-04-30T02:05:18.877Z,6.92
2019-04-30T02:06:19.669Z,6.89
2019-04-30T02:07:19.061Z,6.88
2019-04-30T02:08:19.530Z,6.89
2019-04-30T02:09:18.838Z,6.85
2019-04-30T02:10:18.626Z,6.87
2019-04-30T02:11:19.002Z,6.97
2019-04-30T02:12:21.657Z,6.88
2019-04-30T02:13:18.885Z,6.88
2019-04-30T02:14:18.961Z,6.89
2019-04-30T02:15:19.248Z,6.94
2019-04-30T02:16:20.765Z,6.85
2019-04-30T02:17:19.266Z,6.87
2019-04-30T02:18:19.474Z,6.85
2019-04-30T02:19:18.838Z,6.81
2019-04-30T02:20:18.592Z,6.84
2019-04-30T02:21:19.472Z,6.85
2019-04-30T02:22:18.950Z,6.91
2019-04-30T02:23:19.551Z,6.81
2019-04-30T02:24:19.191Z,6.87
2019-04-30T02:25:19.460Z,6.84
2019-04-30T02:26:18.696Z,6.85
2019-04-30T02:27:19.121Z,6.80
2019-04-30T02:28:18.938Z,6.81
2019-04-30T02:29:19.127Z,6.79
2019-04-30T02:30:20.563Z,6.73
2019-04-30T02:31:22.356Z,6.71
2019-04-30T02:32:20.794Z,6.77
2019-04-30T02:33:19.955Z,6.79
2019-04-30T02:34:21.815Z,6.77
2019-04-30T02:35:19.450Z,6.71
2019-04-30T02:36:19.706Z,6.70
2019-04-30T02:37:20.855Z,6.74
2019-04-30T02:38:20.201Z,6.70
2019-04-30T02:39:20.185Z,6.64
2019-04-30T02:40:19.673Z,6.67
2019-04-30T02:41:19.368Z,6.74
2019-04-30T02:42:20.130Z,6.69
2019-04-30T02:43:20.179Z,6.81
2019-04-30T02:44:19.564Z,6.80
2019-04-30T02:45:19.745Z,6.64
2019-04-30T02:46:19.219Z,6.69
2019-04-30T02:47:20.134Z,6.67
2019-04-30T02:48:19.423Z,6.61
2019-04-30T02:49:20.170Z,6.69
2019-04-30T02:50:21.682Z,6.67
2019-04-30T02:51:22.542Z,6.61
2019-04-30T02:52:19.554Z,6.64
2019-04-30T02:53:19.493Z,6.66
2019-04-30T02:54:20.213Z,6.67
2019-04-30T02:55:19.477Z,6.56
2019-04-30T02:56:20.212Z,6.59
2019-04-30T02:57:22.900Z,6.54
2019-04-30T02:58:20.987Z,6.59
2019-04-30T02:59:20.072Z,6.52
2019-04-30T03:00:20.207Z,6.55
2019-04-30T03:01:19.935Z,6.54
2019-04-30T03:02:19.537Z,6.54
2019-04-30T03:03:20.297Z,6.56
2019-04-30T03:04:19.524Z,6.49
2019-04-30T03:05:19.543Z,6.52
2019-04-30T03:06:20.359Z,6.51
2019-04-30T03:07:19.383Z,6.48
2019-04-30T03:08:19.922Z,6.52
2019-04-30T03:09:19.889Z,6.49
2019-04-30T03:10:19.821Z,6.41
2019-04-30T03:11:20.289Z,6.44
2019-04-30T03:12:17.243Z,6.55
2019-04-30T03:13:19.966Z,6.38
2019-04-30T03:14:17.205Z,6.46
2019-04-30T03:15:19.509Z,6.43
2019-04-30T03:16:20.504Z,6.43
2019-04-30T03:17:17.159Z,6.41
2019-04-30T03:18:19.666Z,6.44
2019-04-30T03:19:19.633Z,6.41
2019-04-30T03:20:31.028Z,6.44
2019-04-30T03:21:19.174Z,6.31
2019-04-30T03:22:17.139Z,6.40
2019-04-30T03:23:19.410Z,6.27
2019-04-30T03:24:17.091Z,6.36
2019-04-30T03:25:19.184Z,6.36
2019-04-30T03:26:19.832Z,6.28
2019-04-30T03:27:17.067Z,6.25
2019-04-30T03:28:19.953Z,6.27
2019-04-30T03:29:17.048Z,6.25
2019-04-30T03:30:21.338Z,6.22
2019-04-30T03:31:21.994Z,6.18
2019-04-30T03:32:21.476Z,6.18
2019-04-30T03:33:22.333Z,6.19
2019-04-30T03:34:24.711Z,6.14
2019-04-30T03:35:22.328Z,6.14
2019-04-30T03:36:21.715Z,6.18
2019-04-30T03:37:19.691Z,6.08
2019-04-30T03:38:16.931Z,6.00
2019-04-30T03:39:19.680Z,6.12
2019-04-30T03:40:16.914Z,6.08
2019-04-30T03:41:19.610Z,6.09
2019-04-30T03:42:19.681Z,6.04
2019-04-30T03:43:16.876Z,6.03
2019-04-30T03:44:24.402Z,6.03
2019-04-30T03:45:20.221Z,5.96
2019-04-30T03:46:19.273Z,5.99
2019-04-30T03:47:16.879Z,5.97
2019-04-30T03:48:19.811Z,5.94
2019-04-30T03:49:16.817Z,5.99
2019-04-30T03:50:19.600Z,5.99
2019-04-30T03:51:16.787Z,5.94
2019-04-30T03:52:19.494Z,5.97
2019-04-30T03:53:16.808Z,5.96
2019-04-30T03:54:19.106Z,5.93
2019-04-30T03:55:16.754Z,5.96
2019-04-30T03:56:22.393Z,5.86
2019-04-30T03:57:20.316Z,5.86
2019-04-30T03:58:20.823Z,5.89
2019-04-30T03:59:16.703Z,6.00
2019-04-30T04:00:16.702Z,5.91
2019-04-30T04:01:16.692Z,5.89
2019-04-30T04:02:16.665Z,5.83
2019-04-30T04:03:16.675Z,5.82
2019-04-30T04:04:16.661Z,5.86
2019-04-30T04:05:16.663Z,5.83
2019-04-30T04:06:21.279Z,5.86
2019-04-30T04:07:16.619Z,5.91
2019-04-30T04:08:19.334Z,5.97
2019-04-30T04:09:16.599Z,5.94
2019-04-30T04:10:16.578Z,6.11
2019-04-30T04:11:16.576Z,6.06
2019-04-30T04:12:16.560Z,6.09
2019-04-30T04:13:16.561Z,6.08
2019-04-30T04:14:16.550Z,6.00
2019-04-30T04:15:16.518Z,6.14
2019-04-30T04:16:19.339Z,6.12
2019-04-30T04:17:16.533Z,6.14
2019-04-30T04:18:16.528Z,6.14
2019-04-30T04:19:16.479Z,6.14
2019-04-30T04:20:16.483Z,6.17
2019-04-30T04:21:17.336Z,6.22
2019-04-30T04:22:16.448Z,6.28
2019-04-30T04:23:19.096Z,6.27
2019-04-30T04:24:16.513Z,6.28
2019-04-30T04:25:16.413Z,6.34
2019-04-30T04:26:16.420Z,6.27
2019-04-30T04:27:16.392Z,6.34
2019-04-30T04:28:16.396Z,6.22
2019-04-30T04:29:16.370Z,6.34
2019-04-30T04:30:16.356Z,6.37
2019-04-30T04:31:16.352Z,6.33
2019-04-30T04:32:16.351Z,6.27
2019-04-30T04:33:16.336Z,6.28
2019-04-30T04:34:16.345Z,6.28
2019-04-30T04:35:16.302Z,6.30
2019-04-30T04:36:16.295Z,6.30
2019-04-30T04:37:16.282Z,6.30
2019-04-30T04:38:16.296Z,6.34
2019-04-30T04:39:16.270Z,6.36
2019-04-30T04:40:16.252Z,6.34
2019-04-30T04:42:19.368Z,6.37
2019-04-30T04:43:16.230Z,6.37
2019-04-30T04:44:16.249Z,6.40
2019-04-30T04:45:16.199Z,6.41
2019-04-30T04:46:16.231Z,6.46
2019-04-30T04:47:16.528Z,6.48
2019-04-30T04:48:16.181Z,6.51
2019-04-30T04:50:19.869Z,6.43
2019-04-30T04:51:31.331Z,6.44
2019-04-30T04:52:17.118Z,6.41
2019-04-30T04:53:16.099Z,6.44
2019-04-30T04:54:16.106Z,6.51
2019-04-30T04:55:16.071Z,6.54
2019-04-30T04:56:16.066Z,6.54
2019-04-30T04:57:19.492Z,6.55
2019-04-30T04:58:21.156Z,6.56
2019-04-30T04:59:16.054Z,6.56
2019-04-30T05:00:16.026Z,6.58
2019-04-30T05:01:16.010Z,6.52
2019-04-30T05:02:16.003Z,6.56
2019-04-30T05:03:15.991Z,6.56
2019-04-30T05:04:16.010Z,6.55
2019-04-30T05:05:15.970Z,6.56
2019-04-30T05:06:15.960Z,6.51
2019-04-30T05:07:15.947Z,6.55
2019-04-30T05:08:15.930Z,6.54
2019-04-30T05:09:15.948Z,6.62
2019-04-30T05:10:15.916Z,6.61
2019-04-30T05:11:15.911Z,6.70
2019-04-30T05:12:15.894Z,6.71
2019-04-30T05:13:15.875Z,6.69
2019-04-30T05:14:15.909Z,6.69
2019-04-30T05:15:15.852Z,6.71
2019-04-30T05:16:15.845Z,6.76
2019-04-30T05:17:15.834Z,6.66
2019-04-30T05:18:15.819Z,6.70
2019-04-30T05:19:15.834Z,6.70
2019-04-30T05:20:15.821Z,6.73
2019-04-30T05:21:15.783Z,6.73
2019-04-30T05:22:15.790Z,6.73
2019-04-30T05:23:15.767Z,6.81
2019-04-30T05:24:15.771Z,6.97
2019-04-30T05:25:15.763Z,6.92
2019-04-30T05:26:15.731Z,7.07
2019-04-30T05:27:15.725Z,7.06
2019-04-30T05:28:15.715Z,7.06
2019-04-30T05:29:15.707Z,7.05
2019-04-30T05:30:15.891Z,7.10
2019-04-30T05:31:15.679Z,7.02
2019-04-30T05:32:15.665Z,7.13
2019-04-30T05:33:15.656Z,7.07
2019-04-30T05:34:15.642Z,7.25
2019-04-30T05:35:15.665Z,7.20
2019-04-30T05:36:15.625Z,7.20
2019-04-30T05:37:15.625Z,7.24
2019-04-30T05:38:15.602Z,7.30
2019-04-30T05:39:15.595Z,7.39
2019-04-30T05:40:15.603Z,7.35
2019-04-30T05:41:15.568Z,7.32
2019-04-30T05:42:15.554Z,7.39
2019-04-30T05:43:15.541Z,7.40
2019-04-30T05:44:15.533Z,7.48
2019-04-30T05:45:15.547Z,7.45
2019-04-30T05:46:15.517Z,7.49
2019-04-30T05:47:15.495Z,7.49
2019-04-30T05:48:15.497Z,7.48
2019-04-30T05:49:15.482Z,7.67
2019-04-30T05:50:15.507Z,7.57
2019-04-30T05:51:15.453Z,7.60
2019-04-30T05:52:15.442Z,7.58
2019-04-30T05:53:15.430Z,7.69
2019-04-30T05:54:15.416Z,7.75
2019-04-30T05:55:15.440Z,7.77
2019-04-30T05:56:15.409Z,7.77
2019-04-30T05:57:15.381Z,7.83
2019-04-30T05:58:15.374Z,7.82
2019-04-30T05:59:15.370Z,7.80
2019-04-30T06:00:15.383Z,7.87
2019-04-30T06:01:15.349Z,7.92
2019-04-30T06:02:15.374Z,7.97
2019-04-30T06:03:25.255Z,8.00
2019-04-30T06:04:16.319Z,8.15
2019-04-30T06:05:15.319Z,8.04
2019-04-30T06:06:15.287Z,8.11
2019-04-30T06:07:15.277Z,8.04
2019-04-30T06:08:15.271Z,8.20
2019-04-30T06:09:28.615Z,8.10
2019-04-30T06:10:16.360Z,8.15
2019-04-30T06:11:15.260Z,8.18
2019-04-30T06:12:15.225Z,8.22
2019-04-30T06:13:15.214Z,8.29
2019-04-30T06:14:15.191Z,8.30
2019-04-30T06:15:15.181Z,8.38
2019-04-30T06:16:15.192Z,8.36
2019-04-30T06:17:15.178Z,8.34
2019-04-30T06:18:15.184Z,8.45
2019-04-30T06:19:15.145Z,8.58
2019-04-30T06:20:18.351Z,8.58
2019-04-30T06:21:15.123Z,8.59
2019-04-30T06:22:15.105Z,8.56
2019-04-30T06:23:15.100Z,8.73
2019-04-30T06:24:15.089Z,8.79
2019-04-30T06:25:27.144Z,8.73
2019-04-30T06:26:16.079Z,8.84
2019-04-30T06:27:15.055Z,8.79
2019-04-30T06:28:15.044Z,8.95
2019-04-30T06:29:15.031Z,9.02
2019-04-30T06:30:15.017Z,9.05
2019-04-30T06:31:15.157Z,9.11
2019-04-30T06:32:14.995Z,9.08
2019-04-30T06:33:15.126Z,9.20
2019-04-30T06:34:15.011Z,9.18
2019-04-30T06:35:14.998Z,9.24
2019-04-30T06:36:14.985Z,9.35
2019-04-30T06:37:14.959Z,9.35
2019-04-30T06:38:14.933Z,9.33
2019-04-30T06:39:14.925Z,9.42
2019-04-30T06:40:14.907Z,9.50
2019-04-30T06:41:14.925Z,9.54
2019-04-30T06:42:14.881Z,9.54
2019-04-30T06:43:14.873Z,9.58
2019-04-30T06:44:14.865Z,9.69
2019-04-30T06:45:14.850Z,9.68
2019-04-30T06:46:14.848Z,9.81
2019-04-30T06:47:14.866Z,9.76
2019-04-30T06:48:14.820Z,9.76
2019-04-30T06:49:14.807Z,9.87
2019-04-30T06:50:14.798Z,9.84
2019-04-30T06:51:14.788Z,9.94
2019-04-30T06:52:20.613Z,9.97
2019-04-30T06:53:15.765Z,9.96
2019-04-30T06:54:14.751Z,10.01
2019-04-30T06:55:14.747Z,10.08
2019-04-30T06:56:14.732Z,10.12
2019-04-30T06:57:14.732Z,10.09
2019-04-30T06:58:15.549Z,10.22
2019-04-30T06:59:14.695Z,10.18
2019-04-30T07:00:14.691Z,10.34
2019-04-30T07:01:14.679Z,10.41
2019-04-30T07:02:14.687Z,10.42
2019-04-30T07:03:14.682Z,10.41
2019-04-30T07:04:14.639Z,10.45
2019-04-30T07:05:14.639Z,10.45
2019-04-30T07:06:26.834Z,10.48
2019-04-30T07:07:21.323Z,10.59
2019-04-30T07:08:15.601Z,10.61
2019-04-30T07:09:14.610Z,10.59
2019-04-30T07:10:16.959Z,10.71
2019-04-30T07:11:14.564Z,10.74
2019-04-30T07:12:25.460Z,10.79
2019-04-30T07:13:15.549Z,10.81
2019-04-30T07:14:14.541Z,10.79
2019-04-30T07:15:14.521Z,10.89
2019-04-30T07:16:14.511Z,10.84
2019-04-30T07:17:14.550Z,10.91
2019-04-30T07:18:14.487Z,10.94
2019-04-30T07:19:14.477Z,10.92
2019-04-30T07:20:14.463Z,11.02
2019-04-30T07:21:14.455Z,11.02
2019-04-30T07:22:14.464Z,11.09
2019-04-30T07:23:14.432Z,11.09
2019-04-30T07:24:14.422Z,11.10
2019-04-30T07:25:14.439Z,11.19
2019-04-30T07:26:18.896Z,11.15
2019-04-30T07:27:15.852Z,11.24
2019-04-30T07:28:14.396Z,11.25
2019-04-30T07:29:14.359Z,11.33
2019-04-30T07:30:14.352Z,11.29
2019-04-30T07:31:14.915Z,11.40
2019-04-30T07:32:14.369Z,11.42
2019-04-30T07:33:14.315Z,11.40
2019-04-30T07:34:14.316Z,11.47
2019-04-30T07:35:14.295Z,11.46
2019-04-30T07:36:14.290Z,11.51
2019-04-30T07:37:20.435Z,11.54
2019-04-30T07:38:15.290Z,11.64
2019-04-30T07:39:14.253Z,11.76
2019-04-30T07:40:14.240Z,11.76
2019-04-30T07:41:14.226Z,11.91
2019-04-30T07:42:14.234Z,11.90
2019-04-30T07:43:14.207Z,11.91
2019-04-30T07:44:30.026Z,11.95
2019-04-30T07:45:15.183Z,11.82
2019-04-30T07:46:14.180Z,11.96
2019-04-30T07:47:14.213Z,12.01
2019-04-30T07:48:14.162Z,12.05
2019-04-30T07:49:14.135Z,12.21
2019-04-30T07:50:14.599Z,12.19
2019-04-30T07:51:14.772Z,12.29
2019-04-30T07:52:14.845Z,12.27
2019-04-30T07:53:14.136Z,12.42
2019-04-30T07:54:14.087Z,12.50
2019-04-30T07:55:14.073Z,12.42
2019-04-30T07:56:25.856Z,12.49
2019-04-30T07:57:15.070Z,12.49
2019-04-30T07:58:14.065Z,12.50
2019-04-30T07:59:14.041Z,12.57
2019-04-30T08:00:14.013Z,12.64
2019-04-30T08:01:14.016Z,12.67
2019-04-30T08:02:14.885Z,12.74
2019-04-30T08:03:14.201Z,12.77
2019-04-30T08:04:13.991Z,12.77
2019-04-30T08:05:13.979Z,12.82
2019-04-30T08:06:13.982Z,12.89
2019-04-30T08:07:13.946Z,12.95
2019-04-30T08:08:21.564Z,12.82
2019-04-30T08:09:14.930Z,12.93
2019-04-30T08:10:13.915Z,13.03
2019-04-30T08:11:23.824Z,13.03
2019-04-30T08:12:22.261Z,13.12
2019-04-30T08:13:15.950Z,13.15
2019-04-30T08:14:13.898Z,13.23
2019-04-30T08:15:13.867Z,13.39
2019-04-30T08:16:13.849Z,13.42
2019-04-30T08:17:13.827Z,13.45
2019-04-30T08:18:13.827Z,13.49
2019-04-30T08:19:14.335Z,13.52
2019-04-30T08:20:15.882Z,13.64
2019-04-30T08:21:13.802Z,13.62
2019-04-30T08:22:13.769Z,13.67
2019-04-30T08:23:30.576Z,13.84
2019-04-30T08:24:14.753Z,13.84
2019-04-30T08:25:13.739Z,13.85
2019-04-30T08:26:13.729Z,13.88
2019-04-30T08:27:13.725Z,13.84
2019-04-30T08:28:13.700Z,13.97
2019-04-30T08:29:13.720Z,13.99
2019-04-30T08:30:23.923Z,13.96
2019-04-30T08:31:15.664Z,13.99
2019-04-30T08:32:13.673Z,13.99
2019-04-30T08:33:13.645Z,14.00
2019-04-30T08:34:13.694Z,14.04
2019-04-30T08:35:13.624Z,14.07
2019-04-30T08:36:13.632Z,14.09
2019-04-30T08:37:17.706Z,14.12
2019-04-30T08:38:14.593Z,14.33
2019-04-30T08:39:13.617Z,14.25
2019-04-30T08:40:13.566Z,14.22
2019-04-30T08:41:13.571Z,14.27
2019-04-30T08:42:13.541Z,14.25
2019-04-30T08:43:13.546Z,14.28
2019-04-30T08:44:13.545Z,14.20
2019-04-30T08:45:13.510Z,14.25
2019-04-30T08:46:13.502Z,14.32
2019-04-30T08:47:13.498Z,14.33
2019-04-30T08:48:13.482Z,14.46
2019-04-30T08:49:13.739Z,14.52
2019-04-30T08:50:13.462Z,14.50
2019-04-30T08:51:14.173Z,14.51
2019-04-30T08:52:13.443Z,14.60
2019-04-30T08:53:26.276Z,14.61
2019-04-30T08:54:14.440Z,14.75
2019-04-30T08:55:16.976Z,14.81
2019-04-30T08:56:13.404Z,14.89
2019-04-30T08:57:13.383Z,14.98
2019-04-30T08:58:15.194Z,15.01
2019-04-30T08:59:13.383Z,15.03
2019-04-30T09:00:15.104Z,15.02
2019-04-30T09:01:13.334Z,15.07
2019-04-30T09:02:16.360Z,15.10
2019-04-30T09:03:13.309Z,15.03
2019-04-30T09:04:13.317Z,15.19
2019-04-30T09:05:13.293Z,15.17
2019-04-30T09:06:13.284Z,15.10
2019-04-30T09:07:13.270Z,15.07
2019-04-30T09:08:13.281Z,15.10
2019-04-30T09:09:13.243Z,15.13
2019-04-30T09:10:13.255Z,15.16
2019-04-30T09:11:22.618Z,15.19
2019-04-30T09:12:14.225Z,15.19
2019-04-30T09:13:13.232Z,15.32
2019-04-30T09:14:13.187Z,15.27
2019-04-30T09:15:13.249Z,15.31
2019-04-30T09:16:13.165Z,15.38
2019-04-30T09:17:13.167Z,15.35
2019-04-30T09:18:13.159Z,15.50
2019-04-30T09:19:13.144Z,15.46
2019-04-30T09:20:13.150Z,15.44
2019-04-30T09:21:13.121Z,15.43
2019-04-30T09:22:15.285Z,15.49
2019-04-30T09:23:13.095Z,15.47
2019-04-30T09:24:13.098Z,15.51
2019-04-30T09:25:13.113Z,15.46
2019-04-30T09:26:13.067Z,15.43
2019-04-30T09:27:13.045Z,15.51
2019-04-30T09:28:13.050Z,15.46
2019-04-30T09:29:13.025Z,15.49
2019-04-30T09:30:13.035Z,15.46
2019-04-30T09:31:13.022Z,15.69
2019-04-30T09:32:12.991Z,15.80
2019-04-30T09:33:12.984Z,15.80
2019-04-30T09:34:17.172Z,15.83
2019-04-30T09:35:13.957Z,15.87
2019-04-30T09:36:12.987Z,15.86
2019-04-30T09:37:12.934Z,15.83
2019-04-30T09:38:12.917Z,15.86
2019-04-30T09:39:12.919Z,15.83
2019-04-30T09:40:17.912Z,15.83
2019-04-30T09:41:14.390Z,15.87
2019-04-30T09:42:12.875Z,15.93
2019-04-30T09:43:12.874Z,15.96
2019-04-30T09:44:13.818Z,15.92
2019-04-30T09:45:12.848Z,15.94
2019-04-30T09:46:22.002Z,16.01
2019-04-30T09:47:13.824Z,16.11
2019-04-30T09:48:12.844Z,16.09
2019-04-30T09:49:12.817Z,16.02
2019-04-30T09:50:12.793Z,16.02
2019-04-30T09:51:13.301Z,16.11
2019-04-30T09:52:12.803Z,16.12
2019-04-30T09:53:13.093Z,16.21
2019-04-30T09:54:13.562Z,16.34
2019-04-30T09:55:12.757Z,16.38
2019-04-30T09:56:12.855Z,16.38
2019-04-30T09:57:12.737Z,16.41
2019-04-30T09:58:16.975Z,16.50
2019-04-30T09:59:13.687Z,16.58
2019-04-30T10:00:12.680Z,16.56
2019-04-30T10:01:12.663Z,16.60
2019-04-30T10:02:12.656Z,16.67
2019-04-30T10:03:12.986Z,16.88
2019-04-30T10:04:13.063Z,17.06
2019-04-30T10:05:13.266Z,17.55
2019-04-30T10:06:12.610Z,17.82
2019-04-30T10:07:12.636Z,18.23
2019-04-30T10:08:12.612Z,18.70
2019-04-30T10:09:12.584Z,19.18
2019-04-30T10:10:12.578Z,19.43
2019-04-30T10:11:12.551Z,19.61
2019-04-30T10:12:12.549Z,19.78
2019-04-30T10:13:12.553Z,19.99
2019-04-30T10:14:12.527Z,20.21
2019-04-30T10:15:12.510Z,20.39
2019-04-30T10:16:12.501Z,20.74
2019-04-30T10:17:12.501Z,21.09
2019-04-30T10:18:12.517Z,21.42
2019-04-30T10:19:14.904Z,21.74
2019-04-30T10:20:12.458Z,22.00
2019-04-30T10:21:12.447Z,22.35
2019-04-30T10:22:12.433Z,22.62
2019-04-30T10:23:12.451Z,22.76
2019-04-30T10:24:15.645Z,23.05
2019-04-30T10:25:12.411Z,23.33
2019-04-30T10:26:12.391Z,23.53
2019-04-30T10:27:13.366Z,23.80
2019-04-30T10:28:12.400Z,23.93
2019-04-30T10:29:12.367Z,24.10
2019-04-30T10:30:12.361Z,24.22
2019-04-30T10:31:12.368Z,24.61
2019-04-30T10:32:12.335Z,24.81
2019-04-30T10:33:12.335Z,24.95
2019-04-30T10:34:12.375Z,25.24
2019-04-30T10:35:12.297Z,25.43
2019-04-30T10:36:12.294Z,25.82
2019-04-30T10:37:12.275Z,26.20
2019-04-30T10:38:12.265Z,26.51
2019-04-30T10:39:12.307Z,26.82
2019-04-30T10:40:12.275Z,27.21
2019-04-30T10:41:12.235Z,27.40
2019-04-30T10:42:12.226Z,27.39
2019-04-30T10:43:12.261Z,27.44
2019-04-30T10:44:12.252Z,27.17
2019-04-30T10:45:12.199Z,27.24
2019-04-30T10:46:12.200Z,27.50
2019-04-30T10:47:12.176Z,27.65
2019-04-30T10:48:12.178Z,27.59
2019-04-30T10:49:12.205Z,27.39
2019-04-30T10:50:12.143Z,27.62
2019-04-30T10:51:12.134Z,27.82
2019-04-30T10:52:12.133Z,27.69
2019-04-30T10:53:12.525Z,27.51
2019-04-30T10:54:23.210Z,27.41
2019-04-30T10:55:13.093Z,27.41
2019-04-30T10:56:12.163Z,27.54
2019-04-30T10:57:12.083Z,27.28
2019-04-30T10:58:12.079Z,26.84
2019-04-30T10:59:12.085Z,26.84
2019-04-30T11:00:12.071Z,27.22
2019-04-30T11:01:12.055Z,27.81
2019-04-30T11:02:12.037Z,28.24
2019-04-30T11:03:19.925Z,28.55
2019-04-30T11:04:13.063Z,28.80
2019-04-30T11:05:12.034Z,28.92
2019-04-30T11:06:12.055Z,29.18
2019-04-30T11:07:12.051Z,29.23
2019-04-30T11:08:12.851Z,29.19
2019-04-30T11:09:12.119Z,29.78
2019-04-30T11:10:11.986Z,30.61
2019-04-30T11:11:11.991Z,30.69
2019-04-30T11:12:11.981Z,30.47
2019-04-30T11:13:11.973Z,30.60
2019-04-30T11:15:21.009Z,31.14
2019-04-30T11:16:20.974Z,31.39
2019-04-30T11:17:21.195Z,31.88
2019-04-30T11:18:21.174Z,32.13
2019-04-30T11:19:21.180Z,32.25
2019-04-30T11:20:22.237Z,32.25
2019-04-30T11:21:20.993Z,32.25
2019-04-30T11:22:21.007Z,32.45
2019-04-30T11:23:21.338Z,32.40
2019-04-30T11:24:21.179Z,32.52
2019-04-30T11:25:21.357Z,32.60
2019-04-30T11:26:21.393Z,31.28
2019-04-30T11:27:21.642Z,30.64
2019-04-30T11:28:21.399Z,30.38
2019-04-30T11:29:23.060Z,29.79
2019-04-30T11:30:23.836Z,29.42
2019-04-30T11:31:21.031Z,29.26
2019-04-30T11:32:21.086Z,29.53
2019-04-30T11:33:21.043Z,30.24
2019-04-30T11:34:20.879Z,30.73
2019-04-30T11:35:20.838Z,31.29
2019-04-30T11:36:20.816Z,31.80
2019-04-30T11:37:20.816Z,32.59
2019-04-30T11:38:20.806Z,32.99
2019-04-30T11:39:20.799Z,33.47
2019-04-30T11:40:31.196Z,33.87
2019-04-30T11:41:29.993Z,34.47
2019-04-30T11:42:21.772Z,34.82
2019-04-30T11:43:20.759Z,35.04
2019-04-30T11:44:30.367Z,34.94
2019-04-30T11:45:21.787Z,35.09
2019-04-30T11:46:20.735Z,35.36
2019-04-30T11:47:20.742Z,35.15
2019-04-30T11:48:20.744Z,35.00
2019-04-30T11:49:20.716Z,35.02
2019-04-30T11:50:20.738Z,35.04
2019-04-30T11:51:20.708Z,34.97
2019-04-30T11:52:20.691Z,35.16
2019-04-30T11:53:25.320Z,35.00
2019-04-30T11:54:21.688Z,34.70
2019-04-30T11:55:20.710Z,34.02
2019-04-30T11:56:20.678Z,33.63
2019-04-30T11:57:20.659Z,33.56
2019-04-30T11:58:21.603Z,33.82
2019-04-30T11:59:20.646Z,33.75
2019-04-30T12:00:20.651Z,33.41
2019-04-30T12:01:20.667Z,33.32
2019-04-30T12:02:21.191Z,33.11
2019-04-30T12:03:20.610Z,32.88
2019-04-30T12:04:20.607Z,33.26
2019-04-30T12:05:20.874Z,33.65
2019-04-30T12:06:20.587Z,33.65
2019-04-30T12:07:20.577Z,33.34
2019-04-30T12:08:20.565Z,33.03
2019-04-30T12:09:20.559Z,32.59
2019-04-30T12:10:20.618Z,32.07
2019-04-30T12:11:20.550Z,31.47
2019-04-30T12:12:20.539Z,30.32
2019-04-30T12:13:20.529Z,29.34
2019-04-30T12:14:20.525Z,28.71
2019-04-30T12:15:20.540Z,28.03
2019-04-30T12:16:20.503Z,27.41
2019-04-30T12:17:20.490Z,27.10
2019-04-30T12:18:20.494Z,26.72
2019-04-30T12:19:20.471Z,26.13
2019-04-30T12:20:20.474Z,25.57
2019-04-30T12:21:20.446Z,25.10
2019-04-30T12:22:20.439Z,24.73
2019-04-30T12:23:20.429Z,24.34
2019-04-30T12:24:20.431Z,23.95
2019-04-30T12:25:20.436Z,23.53
2019-04-30T12:26:20.404Z,23.22
2019-04-30T12:27:20.393Z,22.95
2019-04-30T12:28:20.381Z,22.61
2019-04-30T12:29:20.380Z,22.36
2019-04-30T12:30:20.832Z,22.17
2019-04-30T12:31:20.354Z,21.94
2019-04-30T12:32:21.367Z,21.75
2019-04-30T12:33:20.325Z,21.65
2019-04-30T12:34:20.307Z,21.44
2019-04-30T12:35:20.331Z,21.47
2019-04-30T12:36:20.289Z,21.61
2019-04-30T12:37:20.283Z,21.65
2019-04-30T12:38:20.285Z,21.54
2019-04-30T12:39:20.270Z,21.29
2019-04-30T12:40:28.752Z,21.29
2019-04-30T12:41:21.234Z,21.35
2019-04-30T12:42:20.227Z,21.40
2019-04-30T12:43:20.210Z,21.68
2019-04-30T12:44:20.201Z,21.90
2019-04-30T12:45:20.217Z,22.14
2019-04-30T12:46:21.341Z,22.20
2019-04-30T12:47:21.970Z,22.15
2019-04-30T12:48:20.390Z,22.17
2019-04-30T12:49:20.148Z,22.21
2019-04-30T12:50:20.181Z,22.30
2019-04-30T12:51:20.131Z,22.31
2019-04-30T12:52:20.138Z,22.39
2019-04-30T12:53:20.120Z,22.54
2019-04-30T12:54:20.095Z,22.65
2019-04-30T12:55:22.552Z,22.80
2019-04-30T12:56:26.684Z,22.97
2019-04-30T12:57:21.071Z,23.09
2019-04-30T12:58:20.775Z,23.28
2019-04-30T12:59:20.066Z,23.19
2019-04-30T13:00:20.048Z,23.27
2019-04-30T13:01:20.040Z,23.50
2019-04-30T13:02:20.021Z,23.48
2019-04-30T13:03:20.002Z,23.79
2019-04-30T13:04:19.997Z,24.18
2019-04-30T13:05:19.977Z,24.67
2019-04-30T13:06:20.584Z,24.99
2019-04-30T13:07:20.840Z,24.67
2019-04-30T13:08:21.204Z,24.62